KRSW

Southwest Florida International Airport

Fort Myers, Florida, USA
METAR KRSW 182144Z 34005KT 10SM FEW043 24/21 A3005 RMK AO2 LTG DSNT ALQDS TSE07 T02440211
Observed Flight Rules
Aug-18 @ 21:44 UTC (11 minutes ago) Visual Flight Rules
Wind Visibility Clouds
340° at 5 knots 10 miles
  • Few at 4,300' AGL
Temperatures Readings
Current 24°C / 75°F
Dewpoint 21°C / 70°F
Humidity 83%
Altimeter 30.05" Hg
Pressure 1018 hPa
Elevation 10
METAR KRSW 182144Z 34005KT 10SM FEW043 24/21 A3005 RMK AO2 LTG DSNT ALQDS TSE07 T02440211
Observed Flight Rules
Aug-18 @ 21:44 UTC
(11 minutes ago)
VFR
Wind Visibility
340° at 5 knots 10 miles
Clouds
  • Few at 4,300' AGL
Temperature Dewpoint
24°C / 75°F 21°C / 70°F
Humidity Altimeter Pressure
83% 30.05" Hg 1018 hPa